Elkhart Lake, Wisconsin
Current Conditions -  °F | °C
As of 1:53 AM on Saturday 01 Nov 2014 (Local Time) from KSBM Reporting Station
Overcast Overcast  
Wind Chill: -4°   Ceiling: 3500
Heat Index:   Visibility: 10mi
Dew Point: -6°   Wind: 14mph
Humidity: 61%   Direction: 340°NNW
Pressure: 30.4"   Gusts: NA
Location:  43.83°N, 88.02°W
Report Text: KSBM 010653Z AUTO 34012KT 10SM OVC035 01/M06 A3040 RMK AO2 SLP302 T00111056
Loading
Personal Weather Stations






























Interactive Weather Map
Tropical Storm Tracking
New forecast layout! Learn more

10-Day Weather Forecast

Advertisements
Track Severe Weather on mobile